Time;durP1;ratioP1;P1;durP2;ratioP2;P2;SDS_P1;SDS_P2;PMS_P1;PMS_P2;Temp;Humidity;BMP_temperature;BMP_pressure;BME280_temperature;BME280_humidity;BME280_pressure;Samples;Min_cycle;Max_cycle;Signal;HPM_P1;HPM_P2
2022/04/08 00:00:43;;;;;;;1.27;0.40;;;;;;;;;;20319270;29;20058;-82
2022/04/08 00:10:45;;;;;;;1.40;0.45;;;;;;;;;;20334696;29;20055;-82
2022/04/08 00:20:47;;;;;;;2.80;0.32;;;;;;;;;;20333523;29;20158;-82
2022/04/08 00:30:49;;;;;;;1.05;0.30;;;;;;;;;;20349480;29;20080;-82
2022/04/08 00:40:51;;;;;;;1.30;0.40;;;;;;;;;;20348764;29;20052;-82
2022/04/08 00:50:53;;;;;;;1.08;0.40;;;;;;;;;;20316207;29;20056;-82
2022/04/08 01:00:54;;;;;;;2.08;0.73;;;;;;;;;;20330488;29;20613;-82
2022/04/08 01:10:56;;;;;;;0.77;0.35;;;;;;;;;;20330929;29;20052;-83
2022/04/08 01:21:01;;;;;;;1.58;0.63;;;;;;;;;;20330050;29;20052;-84
2022/04/08 01:31:03;;;;;;;1.77;0.60;;;;;;;;;;20346906;29;20043;-83
2022/04/08 01:41:05;;;;;;;1.08;0.40;;;;;;;;;;20314482;29;20054;-84
2022/04/08 01:51:06;;;;;;;1.63;0.40;;;;;;;;;;20328136;29;20043;-83
2022/04/08 02:01:08;;;;;;;2.13;0.95;;;;;;;;;;20311181;29;20073;-83
2022/04/08 02:11:10;;;;;;;1.40;0.43;;;;;;;;;;20327521;29;20040;-85
2022/04/08 02:21:11;;;;;;;2.05;0.73;;;;;;;;;;20326422;29;20139;-83
2022/04/08 02:31:13;;;;;;;1.23;0.40;;;;;;;;;;20311212;29;20122;-83
2022/04/08 02:41:15;;;;;;;0.65;0.20;;;;;;;;;;20310795;29;20499;-83
2022/04/08 02:51:17;;;;;;;0.50;0.20;;;;;;;;;;20310685;29;20044;-84
2022/04/08 03:01:18;;;;;;;0.95;0.30;;;;;;;;;;20309899;29;20044;-83
2022/04/08 03:11:20;;;;;;;0.80;0.30;;;;;;;;;;20353734;29;20048;-83
2022/04/08 03:21:22;;;;;;;1.02;0.20;;;;;;;;;;20322660;29;20051;-83
2022/04/08 03:31:23;;;;;;;1.27;0.30;;;;;;;;;;20338514;29;20048;-84
2022/04/08 03:41:25;;;;;;;0.90;0.20;;;;;;;;;;20321709;29;20056;-84
2022/04/08 03:51:27;;;;;;;0.43;0.30;;;;;;;;;;20336185;29;20071;-82
2022/04/08 04:01:29;;;;;;;1.75;0.38;;;;;;;;;;20352214;29;20491;-84
2022/04/08 04:11:32;;;;;;;0.25;0.20;;;;;;;;;;20351758;29;20451;-83
2022/04/08 04:21:34;;;;;;;1.80;0.30;;;;;;;;;;20317492;29;20059;-83
2022/04/08 04:31:35;;;;;;;1.48;0.50;;;;;;;;;;20317257;29;20047;-84
2022/04/08 04:41:37;;;;;;;0.70;0.40;;;;;;;;;;20348608;29;20056;-82
2022/04/08 04:51:39;;;;;;;1.17;0.30;;;;;;;;;;20331318;29;20111;-83
2022/04/08 05:01:41;;;;;;;1.75;0.30;;;;;;;;;;20330951;29;20079;-87
2022/04/08 05:11:43;;;;;;;1.15;0.40;;;;;;;;;;20346485;29;20052;-83
2022/04/08 05:21:44;;;;;;;0.30;0.20;;;;;;;;;;20345492;29;20143;-82
2022/04/08 05:31:47;;;;;;;0.40;0.20;;;;;;;;;;20622410;23;20139;-81
2022/04/08 05:41:49;;;;;;;0.68;0.30;;;;;;;;;;20266038;29;20076;-81
2022/04/08 05:51:51;;;;;;;0.77;0.20;;;;;;;;;;20266856;29;20044;-82
2022/04/08 06:01:54;;;;;;;0.55;0.20;;;;;;;;;;20246234;29;20497;-81
2022/04/08 06:11:56;;;;;;;1.33;0.30;;;;;;;;;;20227531;29;20064;-80
2022/04/08 06:21:59;;;;;;;0.38;0.30;;;;;;;;;;20247498;29;20052;-80
2022/04/08 06:32:00;;;;;;;0.50;0.30;;;;;;;;;;20265086;29;20419;-81
2022/04/08 06:42:03;;;;;;;0.38;0.30;;;;;;;;;;20237606;29;20096;-80
2022/04/08 06:52:05;;;;;;;0.38;0.28;;;;;;;;;;20262029;29;20570;-79
2022/04/08 07:02:07;;;;;;;0.70;0.20;;;;;;;;;;20261073;29;20503;-80
2022/04/08 07:12:09;;;;;;;0.40;0.30;;;;;;;;;;20277194;29;20063;-79
2022/04/08 07:22:11;;;;;;;0.17;0.17;;;;;;;;;;20242444;29;20059;-79
2022/04/08 07:32:20;;;;;;;0.30;0.20;;;;;;;;;;20227046;29;20060;-80
2022/04/08 07:42:22;;;;;;;0.25;0.20;;;;;;;;;;20242435;29;20047;-79
2022/04/08 07:52:25;;;;;;;0.70;0.25;;;;;;;;;;20256254;29;20585;-80
2022/04/08 08:02:29;;;;;;;1.02;0.30;;;;;;;;;;20257162;29;20053;-80
2022/04/08 08:12:31;;;;;;;1.85;0.30;;;;;;;;;;20272696;29;20080;-80
2022/04/08 08:22:33;;;;;;;0.70;0.22;;;;;;;;;;20255122;29;20053;-80
2022/04/08 08:32:35;;;;;;;0.77;0.20;;;;;;;;;;20255582;29;20408;-80
2022/04/08 08:42:37;;;;;;;0.82;0.30;;;;;;;;;;20254966;29;20136;-80
2022/04/08 08:52:40;;;;;;;0.30;0.30;;;;;;;;;;20253777;29;20056;-80
2022/04/08 09:02:48;;;;;;;0.57;0.40;;;;;;;;;;20269472;29;20092;-80
2022/04/08 09:12:54;;;;;;;0.50;0.30;;;;;;;;;;20251845;29;20053;-80
2022/04/08 09:22:56;;;;;;;0.63;0.30;;;;;;;;;;20267354;29;20048;-80
2022/04/08 09:32:58;;;;;;;0.52;0.35;;;;;;;;;;20234606;29;20080;-81
2022/04/08 09:43:00;;;;;;;0.90;0.25;;;;;;;;;;20249082;29;20059;-81
2022/04/08 09:53:02;;;;;;;0.88;0.30;;;;;;;;;;20217859;29;20131;-81
2022/04/08 10:03:04;;;;;;;1.90;0.32;;;;;;;;;;20264793;29;20047;-81
2022/04/08 10:13:06;;;;;;;0.43;0.30;;;;;;;;;;20232021;29;20044;-81
2022/04/08 10:23:09;;;;;;;1.02;0.38;;;;;;;;;;20263886;29;20100;-81
2022/04/08 10:33:13;;;;;;;0.60;0.30;;;;;;;;;;20186142;29;20053;-81
2022/04/08 10:43:15;;;;;;;0.57;0.30;;;;;;;;;;20169807;29;20049;-81
2022/04/08 10:53:24;;;;;;;0.77;0.50;;;;;;;;;;20169214;29;20084;-80
2022/04/08 11:03:29;;;;;;;0.82;0.40;;;;;;;;;;20185570;29;20049;-80
2022/04/08 11:13:30;;;;;;;1.43;0.53;;;;;;;;;;20185182;29;20065;-80
2022/04/08 11:23:36;;;;;;;1.00;0.30;;;;;;;;;;20237721;29;20063;-79
2022/04/08 11:33:40;;;;;;;0.60;0.40;;;;;;;;;;20236665;29;20143;-80
2022/04/08 11:43:42;;;;;;;0.77;0.38;;;;;;;;;;20274583;29;20049;-80
2022/04/08 11:53:51;;;;;;;0.85;0.45;;;;;;;;;;20257526;29;20041;-80
2022/04/08 12:03:53;;;;;;;0.35;0.30;;;;;;;;;;20256818;29;20048;-80
2022/04/08 12:13:56;;;;;;;1.38;0.45;;;;;;;;;;20272755;29;20045;-81
2022/04/08 12:23:58;;;;;;;1.20;0.40;;;;;;;;;;20255491;29;20510;-80
2022/04/08 12:34:02;;;;;;;0.77;0.30;;;;;;;;;;20271632;29;20147;-81
2022/04/08 12:44:04;;;;;;;1.10;0.50;;;;;;;;;;20269799;29;20071;-80
2022/04/08 12:54:06;;;;;;;1.80;0.60;;;;;;;;;;20269448;29;20052;-80
2022/04/08 13:04:08;;;;;;;1.00;0.47;;;;;;;;;;20268768;29;20058;-80
2022/04/08 13:14:09;;;;;;;1.65;0.43;;;;;;;;;;20268214;29;20474;-80
2022/04/08 13:24:11;;;;;;;1.27;0.55;;;;;;;;;;20267431;29;20210;-80
2022/04/08 13:34:13;;;;;;;0.85;0.47;;;;;;;;;;20249725;29;20083;-80
2022/04/08 13:44:35;;;;;;;0.55;0.40;;;;;;;;;;20249229;29;20455;-80
2022/04/08 13:54:36;;;;;;;0.40;0.30;;;;;;;;;;20264736;29;20148;-80
2022/04/08 14:04:38;;;;;;;0.82;0.35;;;;;;;;;;20264682;29;20057;-80
2022/04/08 14:14:41;;;;;;;1.25;0.50;;;;;;;;;;20264597;29;20496;-80
2022/04/08 14:25:03;;;;;;;0.80;0.43;;;;;;;;;;20264169;29;20440;-80
2022/04/08 14:35:25;;;;;;;1.20;0.55;;;;;;;;;;20263745;29;20063;-80
2022/04/08 14:45:27;;;;;;;0.60;0.30;;;;;;;;;;20263359;29;20052;-80
2022/04/08 14:55:29;;;;;;;0.80;0.50;;;;;;;;;;20246464;29;20052;-80
2022/04/08 15:05:30;;;;;;;0.88;0.30;;;;;;;;;;20272140;29;20044;-80
2022/04/08 15:15:32;;;;;;;2.03;0.35;;;;;;;;;;20260478;29;20048;-80
2022/04/08 15:25:34;;;;;;;2.85;0.45;;;;;;;;;;20276154;29;20085;-80
2022/04/08 15:35:37;;;;;;;1.25;0.60;;;;;;;;;;20259071;29;20064;-80
2022/04/08 15:45:39;;;;;;;0.90;0.40;;;;;;;;;;20243186;29;20199;-80
2022/04/08 15:55:45;;;;;;;0.50;0.30;;;;;;;;;;20275668;29;20080;-80
2022/04/08 16:05:47;;;;;;;1.42;0.28;;;;;;;;;;20257329;29;20509;-80
2022/04/08 16:15:49;;;;;;;1.73;0.75;;;;;;;;;;20255081;29;20051;-80
2022/04/08 16:26:10;;;;;;;0.60;0.32;;;;;;;;;;20258292;29;20108;-80
2022/04/08 16:36:12;;;;;;;1.38;0.40;;;;;;;;;;20270695;29;20068;-80
2022/04/08 16:46:14;;;;;;;1.05;0.50;;;;;;;;;;20270078;29;20136;-80
2022/04/08 16:56:16;;;;;;;0.43;0.28;;;;;;;;;;20355112;23;20056;-80
2022/04/08 17:06:17;;;;;;;1.63;0.30;;;;;;;;;;20348025;29;20080;-80
2022/04/08 17:16:19;;;;;;;0.57;0.47;;;;;;;;;;20329524;29;20055;-79
2022/04/08 17:26:21;;;;;;;1.08;0.40;;;;;;;;;;20345157;29;20055;-79
2022/04/08 17:36:23;;;;;;;1.35;0.60;;;;;;;;;;20328174;29;20118;-79
2022/04/08 17:46:25;;;;;;;0.90;0.30;;;;;;;;;;20311902;29;20048;-79
2022/04/08 17:56:27;;;;;;;0.65;0.35;;;;;;;;;;20343592;29;20052;-79
2022/04/08 18:06:29;;;;;;;1.15;0.50;;;;;;;;;;20326162;29;20048;-79
2022/04/08 18:16:31;;;;;;;1.60;0.65;;;;;;;;;;20325768;29;20054;-79
2022/04/08 18:26:32;;;;;;;1.77;0.40;;;;;;;;;;20336309;29;20055;-80
2022/04/08 18:36:34;;;;;;;1.00;0.40;;;;;;;;;;20345355;29;20055;-80
2022/04/08 18:46:36;;;;;;;1.38;0.63;;;;;;;;;;20357591;29;20052;-80
2022/04/08 18:56:38;;;;;;;0.88;0.50;;;;;;;;;;20340574;29;20456;-80
2022/04/08 19:06:40;;;;;;;1.13;0.60;;;;;;;;;;20356748;29;20406;-82
2022/04/08 19:16:47;;;;;;;1.75;0.50;;;;;;;;;;20355332;29;20052;-81
2022/04/08 19:26:50;;;;;;;1.35;0.30;;;;;;;;;;20336786;29;20541;-82
2022/04/08 19:36:52;;;;;;;0.88;0.47;;;;;;;;;;20336094;29;20060;-82
2022/04/08 19:46:54;;;;;;;0.85;0.32;;;;;;;;;;20326554;29;20053;-81
2022/04/08 19:56:57;;;;;;;1.10;0.35;;;;;;;;;;20290023;29;20128;-81
2022/04/08 20:06:58;;;;;;;1.20;0.40;;;;;;;;;;20308319;29;20040;-81
2022/04/08 20:17:00;;;;;;;1.85;0.32;;;;;;;;;;20296391;29;20139;-80
2022/04/08 20:27:02;;;;;;;0.90;0.25;;;;;;;;;;20289205;29;20116;-79
2022/04/08 20:37:04;;;;;;;1.10;0.50;;;;;;;;;;20303124;29;20052;-81
2022/04/08 20:47:06;;;;;;;1.08;0.30;;;;;;;;;;20286493;29;20376;-80
2022/04/08 20:57:08;;;;;;;1.42;0.50;;;;;;;;;;20276480;29;20048;-80
2022/04/08 21:07:10;;;;;;;0.47;0.40;;;;;;;;;;20296141;29;20040;-80
2022/04/08 21:17:11;;;;;;;1.17;0.80;;;;;;;;;;20300602;29;20197;-82
2022/04/08 21:27:13;;;;;;;1.58;0.63;;;;;;;;;;20307513;29;20040;-81
2022/04/08 21:37:15;;;;;;;1.27;0.45;;;;;;;;;;20265814;29;20147;-80
2022/04/08 21:47:17;;;;;;;1.25;0.50;;;;;;;;;;20297777;29;20130;-80
2022/04/08 21:57:18;;;;;;;1.10;0.40;;;;;;;;;;20289847;29;20048;-81
2022/04/08 22:07:20;;;;;;;0.65;0.50;;;;;;;;;;20309231;29;20138;-81
2022/04/08 22:17:22;;;;;;;1.20;0.32;;;;;;;;;;20277871;29;20059;-81
2022/04/08 22:27:23;;;;;;;0.68;0.30;;;;;;;;;;20286046;29;20490;-82
2022/04/08 22:37:25;;;;;;;0.98;0.60;;;;;;;;;;20288650;29;20060;-81
2022/04/08 22:47:27;;;;;;;1.77;0.75;;;;;;;;;;20301743;29;20048;-81
2022/04/08 22:57:29;;;;;;;1.02;0.50;;;;;;;;;;20307011;29;20048;-81
2022/04/08 23:07:30;;;;;;;1.25;0.40;;;;;;;;;;20248723;29;20460;-81
2022/04/08 23:17:32;;;;;;;1.02;0.55;;;;;;;;;;20306651;29;20052;-80
2022/04/08 23:27:34;;;;;;;1.35;0.40;;;;;;;;;;20277009;29;20494;-81
2022/04/08 23:37:35;;;;;;;1.02;0.40;;;;;;;;;;20312847;29;20288;-80
2022/04/08 23:47:37;;;;;;;1.42;0.60;;;;;;;;;;20290196;29;20601;-81
2022/04/08 23:57:39;;;;;;;1.10;0.32;;;;;;;;;;20285920;29;20078;-81
